Time;durP1;ratioP1;P1;durP2;ratioP2;P2;SDS_P1;SDS_P2;PMS_P1;PMS_P2;Temp;Humidity;BMP_temperature;BMP_pressure;BME280_temperature;BME280_humidity;BME280_pressure;Samples;Min_cycle;Max_cycle;Signal;HPM_P1;HPM_P2
2021/11/04 00:00:08;;;;;;;14.13;10.17;;;8.70;99.90;;;;;;5051962;28;20559;-69
2021/11/04 00:02:35;;;;;;;12.57;8.77;;;8.70;99.90;;;;;;5051818;28;20294;-68
2021/11/04 00:05:02;;;;;;;11.60;8.50;;;8.70;99.90;;;;;;5064647;28;20216;-69
2021/11/04 00:07:29;;;;;;;11.27;7.73;;;8.70;99.90;;;;;;5060628;28;20232;-69
2021/11/04 00:09:57;;;;;;;15.33;9.87;;;8.70;99.90;;;;;;5051866;28;20675;-68
2021/11/04 00:12:24;;;;;;;12.47;9.23;;;8.70;99.90;;;;;;5049470;28;20206;-68
2021/11/04 00:14:51;;;;;;;12.57;8.60;;;8.70;99.90;;;;;;5051039;28;20237;-68
2021/11/04 00:17:18;;;;;;;13.80;8.90;;;8.70;99.90;;;;;;5051437;28;20198;-69
2021/11/04 00:19:44;;;;;;;12.50;8.67;;;8.70;99.90;;;;;;5051148;28;20206;-69
2021/11/04 00:22:12;;;;;;;13.83;8.73;;;8.70;99.90;;;;;;5051263;28;20257;-69
2021/11/04 00:24:39;;;;;;;11.37;8.93;;;8.70;99.90;;;;;;5052119;28;20220;-69
2021/11/04 00:27:07;;;;;;;11.70;8.73;;;8.70;99.90;;;;;;5039678;28;20618;-68
2021/11/04 00:29:34;;;;;;;11.20;8.67;;;8.80;99.90;;;;;;5051226;28;20229;-69
2021/11/04 00:32:01;;;;;;;11.10;8.23;;;8.70;99.90;;;;;;5047349;28;20198;-68
2021/11/04 00:34:29;;;;;;;11.87;8.27;;;8.80;99.90;;;;;;5050748;28;20212;-68
2021/11/04 00:36:56;;;;;;;11.13;8.70;;;8.80;99.90;;;;;;5060433;28;20202;-69
2021/11/04 00:39:23;;;;;;;13.10;9.40;;;8.80;99.90;;;;;;5051149;28;20309;-68
2021/11/04 00:41:50;;;;;;;11.87;8.20;;;8.80;99.90;;;;;;5050627;28;20690;-68
2021/11/04 00:44:18;;;;;;;12.70;9.27;;;8.80;99.90;;;;;;5058106;28;20296;-68
2021/11/04 00:46:45;;;;;;;12.27;8.30;;;8.80;99.90;;;;;;5051378;28;20202;-68
2021/11/04 00:49:12;;;;;;;12.93;8.00;;;8.80;99.90;;;;;;5050805;28;20210;-68
2021/11/04 00:51:38;;;;;;;11.70;8.60;;;8.80;99.90;;;;;;5054418;28;20332;-67
2021/11/04 00:54:06;;;;;;;11.20;8.67;;;8.80;99.90;;;;;;5059401;28;20208;-68
2021/11/04 00:56:32;;;;;;;11.83;7.83;;;8.80;99.90;;;;;;5058652;28;20312;-68
2021/11/04 00:58:59;;;;;;;11.57;7.70;;;8.70;99.90;;;;;;5049983;28;20568;-68
2021/11/04 01:01:29;;;;;;;10.43;7.93;;;8.70;99.90;;;;;;5053946;28;20224;-70
2021/11/04 01:03:56;;;;;;;10.87;8.13;;;8.70;99.90;;;;;;5053764;28;20646;-69
2021/11/04 01:06:23;;;;;;;9.43;7.43;;;8.70;99.90;;;;;;5059968;28;20209;-69
2021/11/04 01:08:50;;;;;;;10.40;7.20;;;8.70;99.90;;;;;;5050680;28;20259;-68
2021/11/04 01:11:18;;;;;;;11.17;8.13;;;8.70;99.90;;;;;;5051461;28;20213;-68
2021/11/04 01:13:45;;;;;;;11.13;7.67;;;8.70;99.90;;;;;;5050867;28;20220;-68
2021/11/04 01:16:12;;;;;;;8.23;7.10;;;8.70;99.90;;;;;;5059617;28;20209;-71
2021/11/04 01:18:42;;;;;;;10.70;7.77;;;8.70;99.90;;;;;;5060444;28;20272;-69
2021/11/04 01:21:09;;;;;;;9.40;7.30;;;8.70;99.90;;;;;;5051051;28;20220;-69
2021/11/04 01:23:36;;;;;;;9.77;7.27;;;8.70;99.90;;;;;;5051153;28;20226;-67
2021/11/04 01:26:03;;;;;;;8.67;7.30;;;8.70;99.90;;;;;;5057488;28;20212;-69
2021/11/04 01:28:30;;;;;;;11.23;7.97;;;8.70;99.90;;;;;;5055244;28;20206;-69
2021/11/04 01:30:57;;;;;;;10.63;7.53;;;8.70;99.90;;;;;;5043486;28;20249;-68
2021/11/04 01:33:24;;;;;;;9.47;7.47;;;8.70;99.90;;;;;;5046009;28;20202;-68
2021/11/04 01:35:52;;;;;;;11.50;6.97;;;8.70;99.90;;;;;;5044354;28;20258;-68
2021/11/04 01:38:19;;;;;;;9.77;7.40;;;8.70;99.90;;;;;;5058586;28;20210;-69
2021/11/04 01:40:47;;;;;;;9.43;6.90;;;8.70;99.90;;;;;;5050735;28;20232;-68
2021/11/04 01:43:14;;;;;;;10.67;7.90;;;8.70;99.90;;;;;;5051117;28;20324;-69
2021/11/04 01:45:40;;;;;;;10.80;7.20;;;8.70;99.90;;;;;;5051086;28;20685;-67
2021/11/04 01:48:07;;;;;;;9.80;7.37;;;8.70;99.90;;;;;;5050432;28;20248;-68
2021/11/04 01:50:35;;;;;;;9.27;7.60;;;8.70;99.90;;;;;;5052684;28;20292;-69
2021/11/04 01:53:04;;;;;;;10.57;8.53;;;8.70;99.90;;;;;;5052311;28;20212;-69
2021/11/04 01:55:32;;;;;;;10.97;7.23;;;8.80;99.90;;;;;;5059575;28;20211;-68
2021/11/04 01:58:00;;;;;;;9.80;7.20;;;8.80;99.90;;;;;;5050065;28;20230;-69
2021/11/04 02:00:29;;;;;;;9.17;7.63;;;8.80;99.90;;;;;;5053317;28;20210;-69
2021/11/04 02:03:02;;;;;;;8.07;6.93;;;8.80;99.90;;;;;;5053467;28;20229;-69
2021/11/04 02:05:35;;;;;;;9.90;7.00;;;8.80;99.90;;;;;;5054430;28;20509;-68
2021/11/04 02:08:09;;;;;;;9.67;7.07;;;8.80;99.90;;;;;;5058897;28;20205;-69
2021/11/04 02:10:41;;;;;;;10.07;7.30;;;8.80;99.90;;;;;;5053596;28;20210;-68
2021/11/04 02:13:14;;;;;;;12.47;7.43;;;8.80;99.90;;;;;;5053940;28;20236;-68
2021/11/04 02:15:44;;;;;;;11.43;8.10;;;8.90;99.90;;;;;;5054044;28;20210;-68
2021/11/04 02:18:13;;;;;;;10.50;7.73;;;8.90;99.90;;;;;;5058036;28;20209;-68
2021/11/04 02:20:52;;;;;;;9.37;7.10;;;8.90;99.90;;;;;;5051209;28;20210;-69
2021/11/04 02:23:25;;;;;;;8.13;6.40;;;8.90;99.90;;;;;;5058199;28;20628;-68
2021/11/04 02:25:55;;;;;;;9.57;7.20;;;9.00;99.90;;;;;;5056244;28;20205;-68
2021/11/04 02:28:23;;;;;;;9.90;7.03;;;9.00;99.90;;;;;;5057868;28;20591;-69
2021/11/04 02:30:50;;;;;;;7.80;6.47;;;9.00;99.90;;;;;;5052690;28;20281;-68
2021/11/04 02:33:18;;;;;;;8.60;6.60;;;8.90;99.90;;;;;;5053270;28;20206;-68
2021/11/04 02:35:51;;;;;;;7.93;6.53;;;9.00;99.90;;;;;;5055530;28;20229;-68
2021/11/04 02:38:19;;;;;;;9.60;6.50;;;9.00;99.90;;;;;;5059079;28;20202;-68
2021/11/04 02:40:47;;;;;;;8.73;6.23;;;9.00;99.90;;;;;;5060678;28;20206;-68
2021/11/04 02:43:16;;;;;;;8.23;6.43;;;9.10;99.90;;;;;;5052608;28;20222;-68
2021/11/04 02:45:44;;;;;;;8.97;6.77;;;9.00;99.90;;;;;;5054064;28;20198;-68
2021/11/04 02:48:11;;;;;;;7.93;6.00;;;9.10;99.90;;;;;;5063208;28;20678;-68
2021/11/04 02:50:39;;;;;;;8.37;5.63;;;9.10;99.90;;;;;;5052650;28;20297;-68
2021/11/04 02:53:06;;;;;;;7.73;6.00;;;9.10;99.90;;;;;;5052210;28;20198;-68
2021/11/04 02:55:34;;;;;;;10.00;6.50;;;9.10;99.90;;;;;;5052820;28;20215;-67
2021/11/04 02:58:06;;;;;;;8.53;5.80;;;9.10;99.90;;;;;;5049484;28;20249;-68
2021/11/04 03:00:35;;;;;;;7.67;6.57;;;9.10;99.90;;;;;;5052252;28;20221;-68
2021/11/04 03:03:02;;;;;;;9.80;6.10;;;9.00;99.90;;;;;;5052679;28;20578;-68
2021/11/04 03:05:29;;;;;;;8.93;6.00;;;9.00;99.90;;;;;;5052412;28;20240;-68
2021/11/04 03:07:56;;;;;;;8.70;6.13;;;9.00;99.90;;;;;;5052667;28;20205;-69
2021/11/04 03:10:23;;;;;;;7.37;5.27;;;9.00;99.90;;;;;;5052282;28;20550;-68
2021/11/04 03:12:51;;;;;;;6.63;5.30;;;9.00;99.90;;;;;;5052457;28;20217;-68
2021/11/04 03:15:19;;;;;;;6.33;5.53;;;9.00;99.90;;;;;;5052269;28;20213;-69
2021/11/04 03:17:48;;;;;;;7.83;5.60;;;9.00;99.90;;;;;;5055204;28;20210;-68
2021/11/04 03:20:17;;;;;;;8.03;5.80;;;9.00;99.90;;;;;;5050540;28;20216;-68
2021/11/04 03:22:45;;;;;;;9.10;5.80;;;9.00;99.90;;;;;;5051984;28;20232;-68
2021/11/04 03:25:14;;;;;;;7.63;5.33;;;9.00;99.90;;;;;;5051471;28;20206;-69
2021/11/04 03:27:42;;;;;;;6.63;5.67;;;9.00;99.90;;;;;;5052107;28;20213;-69
2021/11/04 03:30:11;;;;;;;7.63;5.30;;;9.00;99.90;;;;;;5051155;28;20261;-67
2021/11/04 03:32:40;;;;;;;6.97;5.13;;;8.90;99.90;;;;;;5058212;28;20674;-69
2021/11/04 03:35:11;;;;;;;5.97;5.03;;;8.80;99.90;;;;;;5052016;28;20209;-69
2021/11/04 03:37:41;;;;;;;6.40;5.57;;;8.90;99.90;;;;;;5052229;28;20198;-69
2021/11/04 03:40:09;;;;;;;7.83;5.00;;;8.90;99.90;;;;;;5052341;28;20194;-68
2021/11/04 03:42:37;;;;;;;8.80;5.27;;;8.90;99.90;;;;;;5053264;28;20247;-68
2021/11/04 03:45:04;;;;;;;6.33;4.67;;;8.90;99.90;;;;;;5051357;28;20205;-69
2021/11/04 03:47:32;;;;;;;7.33;5.23;;;8.90;99.90;;;;;;5062825;28;20218;-68
2021/11/04 03:50:00;;;;;;;6.67;4.87;;;9.00;99.90;;;;;;5051431;28;20675;-68
2021/11/04 03:52:29;;;;;;;6.93;5.23;;;9.00;99.90;;;;;;5051602;28;20213;-68
2021/11/04 03:54:57;;;;;;;5.87;4.70;;;9.00;99.90;;;;;;5051356;28;20209;-68
2021/11/04 03:57:26;;;;;;;6.77;4.77;;;9.00;99.90;;;;;;5056020;28;20614;-69
2021/11/04 03:59:53;;;;;;;6.27;4.43;;;9.00;99.90;;;;;;5051053;28;20245;-68
2021/11/04 04:02:21;;;;;;;5.53;4.90;;;9.00;99.90;;;;;;5051888;28;20214;-68
2021/11/04 04:04:52;;;;;;;7.57;5.10;;;9.00;99.90;;;;;;5050877;28;20206;-69
2021/11/04 04:07:19;;;;;;;5.93;4.70;;;9.00;99.90;;;;;;5050891;28;20208;-68
2021/11/04 04:09:48;;;;;;;6.13;4.43;;;9.00;99.90;;;;;;5051320;28;20765;-68
2021/11/04 04:12:16;;;;;;;6.43;4.60;;;9.00;99.90;;;;;;5050193;28;20289;-69
2021/11/04 04:14:43;;;;;;;5.97;4.90;;;9.00;99.90;;;;;;5051080;28;20232;-68
2021/11/04 04:17:10;;;;;;;7.47;4.13;;;9.10;99.90;;;;;;5061937;28;20206;-69
2021/11/04 04:19:37;;;;;;;7.03;4.83;;;9.10;99.90;;;;;;5050925;28;20555;-68
2021/11/04 04:22:05;;;;;;;7.07;4.97;;;9.00;99.90;;;;;;5050662;28;20202;-68
2021/11/04 04:24:32;;;;;;;8.40;4.53;;;9.10;99.90;;;;;;5051249;28;20313;-68
2021/11/04 04:27:01;;;;;;;6.70;4.60;;;9.00;99.90;;;;;;5063379;28;20210;-68
2021/11/04 04:29:28;;;;;;;6.33;4.73;;;9.10;99.90;;;;;;5051100;28;20230;-68
2021/11/04 04:31:57;;;;;;;10.30;4.90;;;9.10;99.90;;;;;;5051329;28;20233;-69
2021/11/04 04:34:25;;;;;;;5.77;4.43;;;9.10;99.90;;;;;;5050941;28;20514;-68
2021/11/04 04:36:52;;;;;;;6.17;4.60;;;9.10;99.90;;;;;;5036712;28;20264;-67
2021/11/04 04:39:18;;;;;;;6.33;4.83;;;9.10;99.90;;;;;;5051879;28;20528;-69
2021/11/04 04:41:45;;;;;;;7.47;4.33;;;9.10;99.90;;;;;;5065423;28;20206;-68
2021/11/04 04:44:13;;;;;;;5.73;4.50;;;9.10;99.90;;;;;;5051791;28;20232;-68
2021/11/04 04:46:40;;;;;;;7.07;4.80;;;9.20;99.90;;;;;;5051855;28;20220;-68
2021/11/04 04:49:08;;;;;;;6.43;4.30;;;9.10;99.90;;;;;;5050487;28;20217;-68
2021/11/04 04:51:35;;;;;;;8.83;5.00;;;9.20;99.90;;;;;;5050534;28;20219;-69
2021/11/04 04:54:02;;;;;;;8.63;4.47;;;9.20;99.90;;;;;;5062346;28;20213;-68
2021/11/04 04:56:29;;;;;;;6.33;4.23;;;9.20;99.90;;;;;;5052461;28;20236;-69
2021/11/04 04:58:56;;;;;;;5.30;4.50;;;9.20;99.90;;;;;;5050584;28;20206;-69
2021/11/04 05:01:24;;;;;;;7.43;4.97;;;9.20;99.90;;;;;;5050387;28;20531;-68
2021/11/04 05:03:51;;;;;;;6.17;4.70;;;9.20;99.90;;;;;;5051179;28;20775;-69
2021/11/04 05:06:18;;;;;;;6.47;4.43;;;9.20;99.90;;;;;;5055205;28;20220;-69
2021/11/04 05:08:45;;;;;;;7.17;4.33;;;9.20;99.90;;;;;;5050947;28;20220;-68
2021/11/04 05:11:12;;;;;;;5.90;4.60;;;9.20;99.90;;;;;;5061783;28;20632;-68
2021/11/04 05:13:38;;;;;;;6.77;4.80;;;9.20;99.90;;;;;;5051731;28;20206;-68
2021/11/04 05:16:06;;;;;;;7.07;5.10;;;9.20;99.90;;;;;;5063269;28;20238;-68
2021/11/04 05:18:34;;;;;;;7.27;5.03;;;9.30;99.90;;;;;;5052992;28;20208;-69
2021/11/04 05:21:01;;;;;;;5.77;4.23;;;9.20;99.90;;;;;;5050246;28;20673;-68
2021/11/04 05:23:28;;;;;;;5.80;4.43;;;9.20;99.90;;;;;;5052453;28;20658;-69
2021/11/04 05:25:54;;;;;;;7.00;4.70;;;9.20;99.90;;;;;;5070468;28;20209;-68
2021/11/04 05:28:21;;;;;;;6.90;5.10;;;9.20;99.90;;;;;;5060027;28;20213;-69
2021/11/04 05:30:48;;;;;;;5.60;4.87;;;9.20;99.90;;;;;;5054178;28;20233;-69
2021/11/04 05:33:15;;;;;;;7.50;4.70;;;9.20;99.90;;;;;;5053717;28;20213;-69
2021/11/04 05:35:43;;;;;;;6.97;4.60;;;9.20;99.90;;;;;;5055074;28;20216;-69
2021/11/04 05:38:10;;;;;;;5.97;4.60;;;9.20;99.90;;;;;;5053994;28;20206;-69
2021/11/04 05:40:37;;;;;;;6.47;4.67;;;9.20;99.90;;;;;;5053440;28;20304;-69
2021/11/04 05:43:04;;;;;;;5.50;4.57;;;9.20;99.90;;;;;;5061671;28;20247;-68
2021/11/04 05:45:31;;;;;;;5.23;4.30;;;9.20;99.90;;;;;;5058213;28;20206;-68
2021/11/04 05:47:58;;;;;;;6.37;4.83;;;9.10;99.90;;;;;;5053223;28;20312;-67
2021/11/04 05:50:25;;;;;;;6.43;4.23;;;9.20;99.90;;;;;;5054225;28;20325;-70
2021/11/04 05:52:54;;;;;;;7.80;4.90;;;9.10;99.90;;;;;;5054961;28;20644;-69
2021/11/04 05:55:21;;;;;;;7.33;4.87;;;9.20;99.90;;;;;;5052187;28;20579;-68
2021/11/04 05:57:48;;;;;;;5.27;4.30;;;9.20;99.90;;;;;;5049133;28;20326;-69
2021/11/04 06:00:15;;;;;;;8.27;5.03;;;9.10;99.90;;;;;;5053200;28;20666;-69
2021/11/04 06:02:42;;;;;;;5.27;4.67;;;9.20;99.90;;;;;;5053861;28;20206;-69
2021/11/04 06:05:09;;;;;;;6.97;5.17;;;9.20;99.90;;;;;;5053137;28;20309;-68
2021/11/04 06:07:36;;;;;;;6.67;4.53;;;9.20;99.90;;;;;;5062225;28;20202;-69
2021/11/04 06:10:05;;;;;;;7.73;5.13;;;9.20;99.90;;;;;;5053807;28;20419;-68
2021/11/04 06:12:31;;;;;;;6.93;4.93;;;9.20;99.90;;;;;;5053741;28;20213;-69
2021/11/04 06:14:58;;;;;;;6.20;4.90;;;9.20;99.90;;;;;;5053050;28;20204;-70
2021/11/04 06:17:25;;;;;;;6.90;4.83;;;9.20;99.90;;;;;;5053276;28;20569;-68
2021/11/04 06:19:52;;;;;;;7.87;5.60;;;9.20;99.90;;;;;;5053260;28;20206;-69
2021/11/04 06:22:19;;;;;;;8.40;5.07;;;9.30;99.90;;;;;;5053750;28;20571;-69
2021/11/04 06:24:45;;;;;;;9.60;5.67;;;9.30;99.90;;;;;;5053860;28;20222;-69
2021/11/04 06:27:14;;;;;;;7.87;5.03;;;9.30;99.90;;;;;;5056199;28;20198;-71
2021/11/04 06:29:40;;;;;;;9.57;5.53;;;9.30;99.90;;;;;;5058689;28;20603;-71
2021/11/04 06:32:08;;;;;;;9.03;5.77;;;9.40;99.90;;;;;;5056043;28;20438;-70
2021/11/04 06:34:35;;;;;;;9.03;5.77;;;9.40;99.90;;;;;;5053123;28;20228;-69
2021/11/04 06:37:01;;;;;;;10.47;5.83;;;9.40;99.90;;;;;;5048791;28;20636;-72
2021/11/04 06:39:29;;;;;;;8.57;5.37;;;9.50;99.90;;;;;;5052313;28;20260;-71
2021/11/04 06:41:56;;;;;;;11.17;5.83;;;9.50;99.90;;;;;;5048327;28;20202;-71
2021/11/04 06:44:24;;;;;;;8.20;4.80;;;9.50;99.90;;;;;;5048877;28;20232;-70
2021/11/04 06:46:53;;;;;;;10.17;5.70;;;9.50;99.90;;;;;;5046457;28;20670;-71
2021/11/04 06:49:27;;;;;;;8.53;5.70;;;9.50;99.90;;;;;;5050860;28;20331;-71
2021/11/04 06:51:56;;;;;;;7.73;5.43;;;9.50;99.90;;;;;;5057028;28;20201;-71
2021/11/04 06:54:25;;;;;;;8.03;5.70;;;9.60;99.90;;;;;;5053256;28;20212;-69
2021/11/04 06:56:53;;;;;;;7.50;5.77;;;9.60;99.90;;;;;;5060070;28;20226;-69
2021/11/04 06:59:22;;;;;;;11.57;6.03;;;9.60;99.90;;;;;;5053115;28;20202;-71
2021/11/04 07:01:55;;;;;;;9.43;5.93;;;9.70;99.90;;;;;;5039401;28;20205;-71
2021/11/04 07:04:34;;;;;;;8.50;5.90;;;9.70;99.90;;;;;;5055324;28;20209;-70
2021/11/04 07:07:03;;;;;;;10.70;6.13;;;9.70;99.90;;;;;;5049934;28;20197;-70
2021/11/04 07:09:31;;;;;;;7.57;5.57;;;9.70;99.90;;;;;;5053434;28;20217;-70
2021/11/04 07:11:59;;;;;;;7.23;5.83;;;9.80;99.90;;;;;;5058619;28;20212;-70
2021/11/04 07:14:31;;;;;;;8.63;6.33;;;9.80;99.90;;;;;;5055572;28;20206;-70
2021/11/04 07:17:02;;;;;;;8.03;5.30;;;9.80;99.90;;;;;;5053839;28;20293;-71
2021/11/04 07:19:30;;;;;;;9.27;5.40;;;9.80;99.90;;;;;;5062410;28;20233;-70
2021/11/04 07:22:03;;;;;;;7.10;5.60;;;9.80;99.90;;;;;;5059166;28;20202;-71
2021/11/04 07:24:33;;;;;;;8.13;5.13;;;9.80;99.90;;;;;;5053190;28;20305;-70
2021/11/04 07:27:14;;;;;;;9.10;5.27;;;9.90;99.90;;;;;;5056554;28;20531;-70
2021/11/04 07:29:45;;;;;;;10.77;5.67;;;9.90;99.90;;;;;;5050595;28;20665;-68
2021/11/04 07:32:16;;;;;;;8.70;5.00;;;9.90;99.90;;;;;;5056141;28;20286;-69
2021/11/04 07:34:44;;;;;;;7.47;4.90;;;10.00;99.90;;;;;;5050097;28;20616;-70
2021/11/04 07:37:13;;;;;;;9.73;5.90;;;10.00;99.90;;;;;;5055257;28;20206;-71
2021/11/04 07:39:43;;;;;;;9.07;5.13;;;10.00;99.90;;;;;;5055705;28;20211;-72
2021/11/04 07:42:10;;;;;;;7.47;4.83;;;10.10;99.90;;;;;;5051752;28;20360;-71
2021/11/04 07:44:38;;;;;;;9.50;5.00;;;10.10;99.90;;;;;;5054105;28;20222;-70
2021/11/04 07:47:07;;;;;;;7.17;5.17;;;10.20;99.90;;;;;;5051387;28;20236;-69
2021/11/04 07:49:36;;;;;;;8.03;5.33;;;10.30;99.90;;;;;;5052277;28;20214;-70
2021/11/04 07:52:06;;;;;;;8.03;5.20;;;10.30;99.90;;;;;;5052647;28;20212;-70
2021/11/04 07:54:34;;;;;;;7.70;4.90;;;10.50;99.90;;;;;;5051679;28;20202;-70
2021/11/04 07:57:01;;;;;;;10.27;5.27;;;10.50;99.90;;;;;;5063361;28;20218;-71
2021/11/04 07:59:30;;;;;;;6.83;4.73;;;10.60;99.90;;;;;;5052214;28;20220;-70
2021/11/04 08:01:59;;;;;;;5.27;4.47;;;10.70;99.90;;;;;;5048931;28;20228;-70
2021/11/04 08:04:27;;;;;;;9.53;4.60;;;10.70;99.90;;;;;;5054246;28;20313;-70
2021/11/04 08:06:56;;;;;;;8.33;5.17;;;10.70;99.90;;;;;;5052078;28;20714;-71
2021/11/04 08:09:23;;;;;;;8.60;5.00;;;10.80;99.90;;;;;;5053464;28;20209;-70
2021/11/04 08:11:50;;;;;;;9.43;5.67;;;10.80;99.90;;;;;;5057229;28;20384;-70
2021/11/04 08:14:16;;;;;;;8.10;6.13;;;10.80;99.90;;;;;;5054199;28;20232;-71
2021/11/04 08:16:44;;;;;;;7.40;5.17;;;10.90;99.90;;;;;;5046046;28;20209;-69
2021/11/04 08:19:11;;;;;;;6.60;4.57;;;;;;;;;;5052851;28;20229;-70
2021/11/04 08:21:38;;;;;;;10.57;4.97;;;10.90;99.90;;;;;;5051771;28;20263;-71
2021/11/04 08:24:06;;;;;;;9.37;5.00;;;11.00;99.90;;;;;;5056737;28;20252;-71
2021/11/04 08:26:33;;;;;;;7.07;4.57;;;11.00;99.90;;;;;;5053391;28;20267;-71
2021/11/04 08:29:01;;;;;;;7.20;4.40;;;11.00;99.90;;;;;;5053976;28;20260;-72
2021/11/04 08:31:28;;;;;;;7.83;4.20;;;11.10;99.90;;;;;;5047087;28;20206;-71
2021/11/04 08:33:55;;;;;;;10.27;4.37;;;11.10;99.90;;;;;;5054690;28;20269;-72
2021/11/04 08:36:22;;;;;;;6.20;4.50;;;11.10;99.90;;;;;;5064846;28;20722;-72
2021/11/04 08:38:49;;;;;;;6.23;4.07;;;11.20;99.90;;;;;;5059104;28;20236;-70
2021/11/04 08:41:17;;;;;;;5.67;4.20;;;11.30;99.90;;;;;;5049477;28;20213;-69
2021/11/04 08:43:44;;;;;;;8.83;5.00;;;11.40;99.90;;;;;;5049595;28;20210;-68
2021/11/04 08:46:11;;;;;;;7.30;4.63;;;11.40;99.90;;;;;;5057108;28;20232;-69
2021/11/04 08:48:39;;;;;;;5.67;3.80;;;11.50;99.90;;;;;;5050497;28;20198;-69
2021/11/04 08:51:06;;;;;;;5.27;3.97;;;11.60;99.90;;;;;;5056839;28;20540;-69
2021/11/04 08:53:34;;;;;;;8.27;4.43;;;11.60;99.90;;;;;;5051096;28;20320;-68
2021/11/04 08:56:01;;;;;;;6.43;4.23;;;11.70;99.90;;;;;;5048932;28;20228;-69
2021/11/04 08:58:29;;;;;;;7.77;4.70;;;11.70;99.90;;;;;;5049326;28;20307;-69
2021/11/04 09:00:58;;;;;;;7.23;4.20;;;11.70;99.90;;;;;;5058409;28;20280;-70
2021/11/04 09:03:25;;;;;;;6.30;3.80;;;11.70;99.90;;;;;;5058425;28;20213;-69
2021/11/04 09:05:53;;;;;;;8.80;4.73;;;;;;;;;;5056518;28;20256;-70
2021/11/04 09:08:19;;;;;;;5.17;3.97;;;11.70;99.90;;;;;;5055027;28;20210;-69
2021/11/04 09:10:46;;;;;;;6.33;3.80;;;11.80;99.90;;;;;;5061330;28;20277;-70
2021/11/04 09:13:13;;;;;;;7.90;4.20;;;11.80;99.90;;;;;;5055755;28;20206;-70
2021/11/04 09:15:42;;;;;;;6.23;3.80;;;11.80;99.90;;;;;;5057245;28;20205;-70
2021/11/04 09:18:09;;;;;;;6.43;3.93;;;11.80;99.90;;;;;;5054936;28;20304;-69
2021/11/04 09:20:36;;;;;;;6.93;4.10;;;11.90;99.90;;;;;;5054566;28;20576;-70
2021/11/04 09:23:03;;;;;;;7.33;4.27;;;12.00;99.90;;;;;;5051235;28;20635;-70
2021/11/04 09:25:31;;;;;;;6.03;3.83;;;12.00;99.90;;;;;;5053577;28;20643;-70
2021/11/04 09:27:58;;;;;;;5.53;4.00;;;12.10;99.90;;;;;;5054629;28;20275;-70
2021/11/04 09:30:26;;;;;;;8.33;4.10;;;12.20;99.90;;;;;;5053711;28;20725;-70
2021/11/04 09:32:55;;;;;;;6.30;4.27;;;12.20;99.90;;;;;;5054144;28;20675;-73
2021/11/04 09:35:22;;;;;;;6.93;4.17;;;12.30;99.90;;;;;;5067967;28;20212;-73
2021/11/04 09:37:49;;;;;;;8.37;4.47;;;12.30;99.90;;;;;;5056128;28;20212;-71
2021/11/04 09:40:18;;;;;;;7.33;4.70;;;12.40;99.90;;;;;;5055580;28;20576;-72
2021/11/04 09:42:45;;;;;;;7.10;4.00;;;12.50;99.90;;;;;;5066794;28;20313;-72
2021/11/04 09:45:12;;;;;;;7.17;4.27;;;12.60;99.90;;;;;;5059186;28;20289;-74
2021/11/04 09:47:40;;;;;;;8.43;4.67;;;12.70;99.90;;;;;;5051400;28;20233;-69
2021/11/04 09:50:11;;;;;;;8.23;4.50;;;12.90;99.90;;;;;;5052108;28;20300;-70
2021/11/04 09:52:40;;;;;;;5.10;3.90;;;13.00;99.90;;;;;;5053700;28;20212;-70
2021/11/04 09:55:09;;;;;;;5.33;3.90;;;13.10;99.90;;;;;;5053171;28;20201;-71
2021/11/04 09:57:39;;;;;;;6.50;3.87;;;13.30;99.90;;;;;;5054126;28;20260;-72
2021/11/04 10:00:08;;;;;;;7.73;3.73;;;13.40;99.90;;;;;;5057063;28;20270;-71
2021/11/04 10:02:35;;;;;;;7.07;4.10;;;13.60;99.90;;;;;;5055713;28;20264;-71
2021/11/04 10:05:08;;;;;;;6.23;4.67;;;13.80;99.90;;;;;;5054385;28;20223;-72
2021/11/04 10:07:46;;;;;;;4.90;3.87;;;13.90;99.90;;;;;;5053323;28;20285;-73
2021/11/04 10:10:14;;;;;;;9.50;4.23;;;13.90;99.90;;;;;;5055702;28;20274;-72
2021/11/04 10:13:00;;;;;;;4.00;3.20;;;14.00;99.90;;;;;;5054876;28;20214;-70
2021/11/04 10:15:27;;;;;;;6.20;3.87;;;13.90;99.90;;;;;;5055019;28;20198;-72
2021/11/04 10:18:13;;;;;;;7.20;3.80;;;14.00;99.90;;;;;;5055422;28;20289;-72
2021/11/04 10:20:42;;;;;;;8.70;4.17;;;13.90;99.90;;;;;;5044346;28;20585;-73
2021/11/04 10:23:11;;;;;;;5.13;3.60;;;13.90;99.90;;;;;;5059697;28;20294;-71
2021/11/04 10:25:39;;;;;;;7.83;4.70;;;13.90;99.90;;;;;;5048869;28;20218;-71
2021/11/04 10:28:26;;;;;;;8.33;4.20;;;13.90;99.90;;;;;;5053840;28;20213;-71
2021/11/04 10:30:53;;;;;;;7.60;3.87;;;14.00;99.90;;;;;;5042334;28;20233;-73
2021/11/04 10:33:25;;;;;;;6.07;3.90;;;14.10;99.90;;;;;;5054559;28;20659;-71
2021/11/04 10:36:06;;;;;;;4.87;3.43;;;14.50;99.90;;;;;;5059761;28;20658;-69
2021/11/04 10:38:38;;;;;;;6.50;3.87;;;15.00;99.90;;;;;;5066497;28;20636;-72
2021/11/04 10:41:07;;;;;;;8.53;4.13;;;15.30;99.90;;;;;;5055151;28;20206;-72
2021/11/04 10:43:35;;;;;;;8.73;4.00;;;15.30;99.90;;;;;;5054811;28;20300;-70
2021/11/04 10:46:10;;;;;;;5.83;3.63;;;15.30;99.90;;;;;;5063874;28;20315;-71
2021/11/04 10:48:38;;;;;;;8.93;4.57;;;15.30;99.90;;;;;;5055321;28;20281;-73
2021/11/04 10:51:08;;;;;;;5.07;3.77;;;15.20;99.70;;;;;;5054619;28;20643;-71
2021/11/04 10:53:34;;;;;;;13.03;3.87;;;15.00;99.70;;;;;;5054890;28;20638;-71
2021/11/04 10:56:18;;;;;;;8.53;4.23;;;14.90;99.90;;;;;;5053956;28;20801;-70
2021/11/04 10:58:54;;;;;;;6.10;3.77;;;14.90;99.90;;;;;;5051018;28;20198;-71
2021/11/04 11:01:32;;;;;;;5.07;3.17;;;14.80;99.90;;;;;;5054305;28;20212;-72
2021/11/04 11:04:06;;;;;;;5.37;3.70;;;14.80;99.90;;;;;;5057433;28;20213;-72
2021/11/04 11:06:38;;;;;;;6.80;4.10;;;14.80;99.90;;;;;;5054804;28;20304;-71
2021/11/04 11:09:08;;;;;;;6.13;3.40;;;14.80;99.90;;;;;;5052555;28;20600;-71
2021/11/04 11:11:36;;;;;;;7.07;3.27;;;14.80;99.90;;;;;;5048447;28;20301;-69
2021/11/04 11:14:03;;;;;;;7.57;3.77;;;14.70;99.90;;;;;;5040889;28;20245;-70
2021/11/04 11:16:30;;;;;;;6.47;3.90;;;14.70;99.90;;;;;;5050261;28;20312;-68
2021/11/04 11:18:58;;;;;;;5.63;3.47;;;14.60;99.90;;;;;;5050271;28;20654;-69
2021/11/04 11:21:33;;;;;;;6.00;3.87;;;14.60;99.90;;;;;;5041571;28;20301;-69
2021/11/04 11:24:02;;;;;;;5.47;3.97;;;14.50;99.90;;;;;;5041029;28;20605;-70
2021/11/04 11:26:29;;;;;;;6.60;3.93;;;14.50;99.90;;;;;;5048955;28;20256;-71
2021/11/04 11:28:57;;;;;;;6.53;3.57;;;14.40;99.90;;;;;;5038417;28;20202;-71
2021/11/04 11:31:26;;;;;;;6.33;3.83;;;14.40;99.90;;;;;;5060742;28;20210;-71
2021/11/04 11:34:20;;;;;;;9.60;4.63;;;14.40;99.90;;;;;;5052390;28;20225;-69
2021/11/04 11:37:16;;;;;;;6.73;4.00;;;14.40;99.90;;;;;;5053371;28;20198;-71
2021/11/04 11:39:47;;;;;;;9.23;4.33;;;14.40;99.90;;;;;;5042387;28;20267;-71
2021/11/04 11:42:16;;;;;;;7.03;4.10;;;14.40;99.90;;;;;;5051334;28;20206;-71
2021/11/04 11:44:47;;;;;;;10.00;4.37;;;14.40;99.90;;;;;;5052318;28;20232;-71
2021/11/04 11:47:16;;;;;;;9.73;3.93;;;14.40;99.90;;;;;;5052030;28;20614;-70
2021/11/04 11:49:45;;;;;;;6.60;3.90;;;14.40;99.90;;;;;;5050869;28;20232;-71
2021/11/04 11:52:43;;;;;;;6.40;4.10;;;14.40;99.90;;;;;;5051804;28;20202;-70
2021/11/04 11:55:14;;;;;;;8.10;4.10;;;14.40;99.90;;;;;;5047439;28;20202;-70
2021/11/04 11:57:42;;;;;;;6.77;4.10;;;14.30;99.90;;;;;;5051881;28;20305;-73
2021/11/04 12:00:10;;;;;;;8.50;4.23;;;14.30;99.90;;;;;;5052639;28;20206;-72
2021/11/04 12:02:51;;;;;;;6.43;4.07;;;14.30;99.90;;;;;;5048738;28;20578;-71
2021/11/04 12:05:39;;;;;;;7.47;4.50;;;14.30;99.90;;;;;;5049362;28;20292;-72
2021/11/04 12:08:35;;;;;;;6.73;4.77;;;14.30;99.90;;;;;;5051447;28;20257;-71
2021/11/04 12:11:06;;;;;;;6.97;4.33;;;14.30;99.90;;;;;;5049610;28;20690;-73
2021/11/04 12:13:36;;;;;;;8.17;4.80;;;14.30;99.90;;;;;;5053317;28;20628;-72
2021/11/04 12:16:14;;;;;;;6.67;4.50;;;14.30;99.90;;;;;;5055127;28;20734;-72
2021/11/04 12:18:55;;;;;;;8.07;5.37;;;14.40;99.90;;;;;;5049533;28;20678;-72
2021/11/04 12:21:25;;;;;;;10.10;5.33;;;14.30;99.90;;;;;;5051036;28;20292;-71
2021/11/04 12:23:52;;;;;;;8.03;5.17;;;14.40;99.90;;;;;;5056033;28;20211;-70
2021/11/04 12:26:32;;;;;;;8.97;5.33;;;14.30;99.90;;;;;;5056213;28;20218;-72
2021/11/04 12:28:59;;;;;;;7.23;4.80;;;14.40;99.90;;;;;;5052841;28;20197;-71
2021/11/04 12:31:28;;;;;;;9.03;5.03;;;14.40;99.90;;;;;;5054884;28;20736;-72
2021/11/04 12:33:56;;;;;;;9.13;5.20;;;14.40;99.90;;;;;;5048525;28;20201;-70
2021/11/04 12:36:41;;;;;;;7.93;5.37;;;14.40;99.90;;;;;;5051553;28;20221;-72
2021/11/04 12:39:19;;;;;;;10.30;5.03;;;14.30;99.90;;;;;;5051853;28;20284;-71
2021/11/04 12:41:48;;;;;;;8.50;5.20;;;14.30;99.90;;;;;;5051331;28;20311;-72
2021/11/04 12:44:17;;;;;;;7.93;5.23;;;14.30;99.90;;;;;;5051946;28;20205;-72
2021/11/04 12:46:47;;;;;;;9.50;5.03;;;14.30;99.90;;;;;;5052296;28;20843;-69
2021/11/04 12:49:15;;;;;;;10.90;6.47;;;14.30;99.90;;;;;;5058236;28;20685;-70
2021/11/04 12:51:50;;;;;;;11.20;5.90;;;14.20;99.90;;;;;;5051322;28;20301;-71
2021/11/04 12:54:18;;;;;;;10.43;5.97;;;14.20;99.90;;;;;;5063837;28;20235;-72
2021/11/04 12:56:48;;;;;;;10.00;5.70;;;14.20;99.90;;;;;;5051081;28;20284;-73
2021/11/04 12:59:31;;;;;;;10.20;5.30;;;14.20;99.90;;;;;;5052650;28;20705;-72